Time;durP1;ratioP1;P1;durP2;ratioP2;P2;SDS_P1;SDS_P2;PMS_P1;PMS_P2;Temp;Humidity;BMP_temperature;BMP_pressure;BME280_temperature;BME280_humidity;BME280_pressure;Samples;Min_cycle;Max_cycle;Signal;HPM_P1;HPM_P2
2023/09/21 00:00:20;;;;;;;2.92;2.22;;;17.70;99.90;;;;;;5024268;28;20402;-54
2023/09/21 00:02:51;;;;;;;5.32;2.30;;;17.70;99.90;;;;;;5027745;28;20711;-54
2023/09/21 00:05:23;;;;;;;4.78;2.10;;;17.60;99.90;;;;;;5031183;28;20036;-54
2023/09/21 00:07:49;;;;;;;4.13;2.20;;;17.60;99.90;;;;;;5026051;28;20050;-54
2023/09/21 00:10:15;;;;;;;3.35;2.20;;;17.50;99.90;;;;;;5024333;28;20022;-54
2023/09/21 00:12:41;;;;;;;3.60;2.10;;;17.50;99.90;;;;;;5021467;28;20091;-54
2023/09/21 00:15:08;;;;;;;3.15;2.10;;;17.50;99.90;;;;;;5027227;28;20521;-54
2023/09/21 00:17:34;;;;;;;2.80;1.98;;;17.50;99.90;;;;;;5021236;28;20022;-55
2023/09/21 00:22:53;;;;;;;7.13;2.63;;;17.40;99.90;;;;;;5024373;28;20075;-54
2023/09/21 00:25:22;;;;;;;3.92;2.47;;;17.50;99.90;;;;;;5024788;28;20117;-54
2023/09/21 00:27:47;;;;;;;4.40;2.70;;;17.50;99.90;;;;;;5024013;28;20041;-54
2023/09/21 00:30:13;;;;;;;2.90;2.05;;;17.50;99.90;;;;;;5024227;28;20029;-54
2023/09/21 00:32:39;;;;;;;3.42;2.35;;;17.50;99.90;;;;;;5022061;28;20446;-54
2023/09/21 00:35:10;;;;;;;8.77;2.35;;;17.50;99.90;;;;;;5024169;28;20433;-54
2023/09/21 00:37:36;;;;;;;3.78;2.47;;;17.60;99.90;;;;;;5022969;28;20060;-54
2023/09/21 00:40:14;;;;;;;3.55;2.20;;;17.60;99.90;;;;;;5034794;28;20433;-54
2023/09/21 00:42:41;;;;;;;3.00;1.88;;;17.60;99.90;;;;;;5022009;28;20025;-55
2023/09/21 00:45:08;;;;;;;2.42;2.05;;;17.60;99.90;;;;;;5026197;28;20025;-54
2023/09/21 00:47:41;;;;;;;4.05;2.22;;;17.60;99.90;;;;;;5023128;28;20064;-54
2023/09/21 00:50:09;;;;;;;4.07;2.33;;;17.60;99.90;;;;;;5024902;28;20100;-54
2023/09/21 00:52:36;;;;;;;7.22;2.47;;;17.50;99.90;;;;;;5022738;28;20024;-54
2023/09/21 00:55:05;;;;;;;4.93;2.20;;;17.60;99.90;;;;;;5023722;28;20368;-54
2023/09/21 00:57:32;;;;;;;2.88;2.28;;;17.60;99.90;;;;;;5026735;28;20124;-54
2023/09/21 00:59:58;;;;;;;3.03;2.03;;;17.50;99.90;;;;;;5023732;28;20030;-54
2023/09/21 01:02:23;;;;;;;3.70;2.08;;;17.50;99.90;;;;;;5024330;28;20487;-54
2023/09/21 01:04:49;;;;;;;6.65;2.35;;;17.50;99.90;;;;;;5026133;28;20025;-54
2023/09/21 01:07:22;;;;;;;4.22;2.50;;;17.50;99.90;;;;;;5024665;28;20372;-54
2023/09/21 01:09:49;;;;;;;3.58;2.13;;;17.50;99.90;;;;;;5018718;28;20018;-54
2023/09/21 01:12:14;;;;;;;6.85;2.40;;;17.40;99.90;;;;;;5024071;28;20036;-54
2023/09/21 01:14:41;;;;;;;4.95;2.58;;;17.40;99.90;;;;;;5022587;28;20454;-54
2023/09/21 01:17:06;;;;;;;3.10;2.05;;;17.40;99.90;;;;;;5024147;28;20601;-54
2023/09/21 01:19:32;;;;;;;5.75;2.70;;;17.40;99.90;;;;;;5023590;28;20173;-54
2023/09/21 01:22:03;;;;;;;6.20;2.30;;;17.40;99.90;;;;;;5023831;28;20068;-54
2023/09/21 01:24:28;;;;;;;2.72;2.00;;;17.40;99.90;;;;;;5024108;28;20022;-54
2023/09/21 01:26:54;;;;;;;4.43;2.40;;;17.30;99.90;;;;;;5022587;28;20475;-54
2023/09/21 01:29:19;;;;;;;3.80;2.15;;;17.30;99.90;;;;;;5024732;28;20025;-54
2023/09/21 01:31:45;;;;;;;3.40;2.38;;;17.30;99.90;;;;;;5018210;28;20558;-54
2023/09/21 01:34:11;;;;;;;3.00;2.17;;;17.30;99.90;;;;;;5024967;28;20057;-54
2023/09/21 01:36:37;;;;;;;3.20;2.17;;;17.30;99.90;;;;;;5026101;28;20036;-54
2023/09/21 01:39:08;;;;;;;3.35;2.33;;;17.30;99.90;;;;;;5023614;28;20065;-54
2023/09/21 01:41:34;;;;;;;4.85;2.20;;;17.30;99.90;;;;;;5022078;28;20056;-54
2023/09/21 01:44:00;;;;;;;4.63;2.58;;;17.20;99.90;;;;;;5022183;28;20022;-54
2023/09/21 01:46:26;;;;;;;3.28;2.22;;;17.30;99.90;;;;;;5024865;28;20048;-54
2023/09/21 01:48:52;;;;;;;3.83;2.63;;;17.20;99.90;;;;;;5022620;28;20010;-54
2023/09/21 01:51:17;;;;;;;4.85;2.70;;;17.20;99.90;;;;;;5020084;28;20022;-54
2023/09/21 01:53:45;;;;;;;3.38;2.00;;;17.20;99.90;;;;;;5020906;28;20029;-54
2023/09/21 01:56:11;;;;;;;3.85;2.35;;;17.20;99.90;;;;;;5019097;28;20026;-54
2023/09/21 01:58:37;;;;;;;5.30;2.65;;;17.20;99.90;;;;;;5022486;28;20474;-54
2023/09/21 02:01:04;;;;;;;3.83;2.40;;;17.20;99.90;;;;;;5023477;28;20041;-54
2023/09/21 02:03:31;;;;;;;6.47;2.60;;;17.20;99.90;;;;;;5022345;28;20034;-54
2023/09/21 02:05:59;;;;;;;3.40;2.60;;;17.20;99.90;;;;;;5023089;28;20110;-54
2023/09/21 02:08:25;;;;;;;2.67;2.10;;;17.20;99.90;;;;;;5024905;28;20021;-53
2023/09/21 02:10:50;;;;;;;3.58;2.53;;;17.10;99.90;;;;;;5024769;28;20026;-54
2023/09/21 02:13:16;;;;;;;4.15;2.83;;;17.10;99.90;;;;;;5025382;28;20068;-54
2023/09/21 02:15:43;;;;;;;3.58;2.30;;;17.10;99.90;;;;;;5021920;28;20029;-53
2023/09/21 02:18:10;;;;;;;3.72;2.20;;;17.10;99.90;;;;;;5025269;28;20017;-54
2023/09/21 02:20:41;;;;;;;5.90;3.20;;;17.10;99.90;;;;;;5024704;28;20026;-54
2023/09/21 02:23:07;;;;;;;3.80;2.40;;;17.10;99.90;;;;;;5021218;28;20029;-54
2023/09/21 02:25:34;;;;;;;4.07;2.75;;;17.10;99.90;;;;;;5024316;28;20029;-54
2023/09/21 02:28:04;;;;;;;4.50;2.05;;;17.10;99.90;;;;;;5025815;28;20060;-54
2023/09/21 02:30:32;;;;;;;4.73;2.67;;;17.10;99.90;;;;;;5026949;28;20022;-54
2023/09/21 02:32:59;;;;;;;3.63;2.60;;;17.00;99.90;;;;;;5044035;28;20359;-54
2023/09/21 02:35:27;;;;;;;4.93;2.30;;;17.10;99.90;;;;;;5030840;28;20483;-53
2023/09/21 02:37:54;;;;;;;4.00;2.33;;;17.00;99.90;;;;;;5027531;28;20038;-54
2023/09/21 02:40:21;;;;;;;3.97;2.72;;;17.10;99.90;;;;;;5029717;28;20112;-54
2023/09/21 02:42:50;;;;;;;3.72;2.60;;;17.10;99.90;;;;;;5026966;28;20086;-54
2023/09/21 02:45:20;;;;;;;3.80;2.40;;;17.10;99.90;;;;;;5024009;28;20025;-54
2023/09/21 02:47:47;;;;;;;8.63;2.53;;;17.10;99.90;;;;;;5027280;28;20075;-54
2023/09/21 02:50:14;;;;;;;5.10;2.20;;;17.10;99.90;;;;;;5029026;28;20298;-54
2023/09/21 02:52:47;;;;;;;5.53;2.85;;;17.20;99.90;;;;;;5027830;28;20025;-54
2023/09/21 02:55:20;;;;;;;5.38;2.78;;;17.10;99.90;;;;;;5038509;28;20116;-54
2023/09/21 02:58:19;;;;;;;4.60;2.75;;;17.10;99.90;;;;;;5029419;28;20022;-54
2023/09/21 03:00:45;;;;;;;3.90;2.85;;;17.20;99.90;;;;;;5015128;28;20483;-54
2023/09/21 03:03:16;;;;;;;3.45;2.20;;;17.20;99.90;;;;;;5030781;28;20060;-54
2023/09/21 03:05:46;;;;;;;5.93;2.78;;;17.20;99.90;;;;;;5021626;28;20021;-54
2023/09/21 03:08:14;;;;;;;4.93;2.75;;;17.10;99.90;;;;;;5024471;28;20560;-54
2023/09/21 03:10:41;;;;;;;7.95;2.97;;;17.10;99.90;;;;;;5028019;28;20625;-54
2023/09/21 03:13:06;;;;;;;3.28;2.60;;;17.10;99.90;;;;;;5030156;28;20492;-54
2023/09/21 03:15:33;;;;;;;5.88;2.65;;;17.10;99.90;;;;;;5024755;28;20045;-54
2023/09/21 03:17:58;;;;;;;5.97;2.85;;;17.10;99.90;;;;;;5029164;28;20034;-54
2023/09/21 03:22:57;;;;;;;6.38;3.35;;;17.00;99.90;;;;;;5027899;28;20480;-55
2023/09/21 03:25:28;;;;;;;8.23;3.35;;;17.00;99.90;;;;;;5029489;28;20078;-55
2023/09/21 03:27:55;;;;;;;4.00;2.70;;;17.00;99.90;;;;;;5028894;28;20104;-55
2023/09/21 03:30:23;;;;;;;8.57;2.97;;;17.00;99.90;;;;;;5030529;28;20506;-56
2023/09/21 03:32:49;;;;;;;4.95;2.75;;;17.00;99.90;;;;;;5027884;28;20036;-55
2023/09/21 03:35:15;;;;;;;5.35;2.55;;;17.00;99.90;;;;;;5030717;28;20190;-55
2023/09/21 03:37:43;;;;;;;7.25;2.95;;;16.90;99.90;;;;;;5025216;28;20033;-54
2023/09/21 03:40:10;;;;;;;5.05;2.78;;;16.90;99.90;;;;;;5030049;28;20037;-55
2023/09/21 03:42:37;;;;;;;4.25;3.05;;;16.90;99.90;;;;;;5026200;28;20375;-55
2023/09/21 03:45:07;;;;;;;6.15;2.90;;;16.90;99.90;;;;;;5030652;28;20026;-54
2023/09/21 03:47:33;;;;;;;4.75;2.70;;;16.90;99.90;;;;;;5028531;28;20048;-54
2023/09/21 03:50:00;;;;;;;4.72;2.83;;;16.80;99.90;;;;;;5027759;28;20395;-55
2023/09/21 03:52:27;;;;;;;5.32;2.65;;;16.80;99.90;;;;;;5029112;28;20025;-54
2023/09/21 03:54:53;;;;;;;6.05;2.72;;;16.80;99.90;;;;;;5028109;28;20030;-54
2023/09/21 03:57:19;;;;;;;7.90;2.88;;;16.80;99.90;;;;;;5023718;28;20509;-54
2023/09/21 03:59:46;;;;;;;4.80;2.78;;;16.80;99.90;;;;;;5028184;28;20029;-55
2023/09/21 04:02:13;;;;;;;5.38;2.60;;;16.80;99.90;;;;;;5029263;28;20121;-55
2023/09/21 04:04:39;;;;;;;5.43;2.88;;;16.70;99.90;;;;;;5029025;28;20618;-55
2023/09/21 04:07:06;;;;;;;5.80;2.80;;;16.70;99.90;;;;;;5025165;28;20403;-55
2023/09/21 04:09:32;;;;;;;6.28;3.28;;;16.70;99.90;;;;;;5029197;28;20021;-54
2023/09/21 04:11:58;;;;;;;3.50;2.78;;;16.70;99.90;;;;;;5027849;28;20060;-54
2023/09/21 04:14:27;;;;;;;8.27;2.85;;;16.70;99.90;;;;;;5029672;28;20017;-55
2023/09/21 04:16:55;;;;;;;6.93;3.00;;;16.80;99.90;;;;;;5028328;28;20021;-55
2023/09/21 04:19:22;;;;;;;7.43;3.10;;;16.70;99.90;;;;;;5019116;28;20109;-55
2023/09/21 04:21:48;;;;;;;4.75;3.05;;;16.70;99.90;;;;;;5025891;28;20555;-55
2023/09/21 04:24:14;;;;;;;5.78;3.17;;;16.70;99.90;;;;;;5029462;28;20021;-55
2023/09/21 04:26:40;;;;;;;7.20;3.72;;;16.70;99.90;;;;;;5029562;28;20018;-55
2023/09/21 04:29:07;;;;;;;2.92;2.40;;;16.70;99.90;;;;;;5026650;28;20018;-55
2023/09/21 04:31:32;;;;;;;9.23;3.13;;;16.70;99.90;;;;;;5027233;28;20044;-55
2023/09/21 04:33:58;;;;;;;7.53;3.47;;;16.70;99.90;;;;;;5044516;28;20026;-55
2023/09/21 04:36:24;;;;;;;6.32;2.63;;;16.70;99.90;;;;;;5028690;28;20022;-55
2023/09/21 04:38:50;;;;;;;6.65;2.92;;;16.70;99.90;;;;;;5026034;28;20032;-55
2023/09/21 04:41:16;;;;;;;5.43;2.88;;;16.60;99.90;;;;;;5028924;28;20052;-55
2023/09/21 04:43:42;;;;;;;7.07;2.65;;;16.60;99.90;;;;;;5028272;28;20490;-55
2023/09/21 04:46:09;;;;;;;5.18;2.53;;;16.60;99.90;;;;;;5028948;28;20053;-54
2023/09/21 04:48:36;;;;;;;6.00;2.88;;;16.60;99.90;;;;;;5025816;28;20014;-54
2023/09/21 04:51:02;;;;;;;5.65;3.00;;;16.60;99.90;;;;;;5026699;28;20030;-54
2023/09/21 04:53:28;;;;;;;3.65;2.78;;;16.50;99.90;;;;;;5028865;28;20013;-54
2023/09/21 04:55:53;;;;;;;5.97;3.25;;;16.50;99.90;;;;;;5023260;28;20029;-54
2023/09/21 04:58:20;;;;;;;7.13;2.60;;;16.50;99.90;;;;;;5029330;28;20048;-57
2023/09/21 05:00:45;;;;;;;6.30;3.13;;;16.50;99.90;;;;;;5021207;28;20335;-54
2023/09/21 05:03:11;;;;;;;6.07;3.13;;;16.60;99.90;;;;;;5028848;28;20029;-54
2023/09/21 05:05:37;;;;;;;8.35;2.55;;;16.50;99.90;;;;;;5029609;28;20028;-54
2023/09/21 05:08:03;;;;;;;18.80;10.88;;;16.50;99.90;;;;;;5028840;28;20105;-54
2023/09/21 05:10:32;;;;;;;10.48;5.65;;;16.50;99.90;;;;;;5022584;28;20014;-55
2023/09/21 05:12:57;;;;;;;4.57;2.95;;;16.50;99.90;;;;;;5028530;28;20029;-54
2023/09/21 05:15:26;;;;;;;6.28;3.25;;;16.50;99.90;;;;;;5028239;28;20107;-54
2023/09/21 05:17:52;;;;;;;4.97;2.97;;;16.50;99.90;;;;;;5028746;28;20108;-54
2023/09/21 05:20:17;;;;;;;3.80;2.95;;;16.60;99.90;;;;;;5025121;28;20101;-54
2023/09/21 05:22:43;;;;;;;6.82;2.90;;;16.50;99.90;;;;;;5023159;28;20083;-54
2023/09/21 05:25:09;;;;;;;6.95;3.65;;;16.50;99.90;;;;;;5029195;28;20017;-54
2023/09/21 05:27:36;;;;;;;6.07;3.20;;;16.60;99.90;;;;;;5029106;28;20027;-54
2023/09/21 05:30:04;;;;;;;7.43;3.53;;;16.60;99.90;;;;;;5026446;28;20080;-54
2023/09/21 05:32:32;;;;;;;11.63;7.55;;;16.60;99.90;;;;;;5024028;28;20029;-54
2023/09/21 05:34:58;;;;;;;5.45;3.45;;;16.60;99.90;;;;;;5028397;28;20440;-55
2023/09/21 05:37:24;;;;;;;4.82;2.78;;;16.60;99.90;;;;;;5029210;28;20048;-54
2023/09/21 05:39:49;;;;;;;8.85;3.45;;;16.60;99.90;;;;;;5029253;28;20021;-54
2023/09/21 05:42:18;;;;;;;7.45;3.05;;;16.70;99.90;;;;;;5020888;28;20499;-54
2023/09/21 05:44:45;;;;;;;7.35;2.80;;;16.70;99.90;;;;;;5027453;28;20037;-54
2023/09/21 05:47:11;;;;;;;4.95;2.92;;;16.70;99.90;;;;;;5028362;28;20021;-54
2023/09/21 05:49:37;;;;;;;4.95;3.20;;;16.70;99.90;;;;;;5027607;28;20079;-54
2023/09/21 05:52:12;;;;;;;3.08;2.78;;;16.80;99.90;;;;;;5024576;28;20125;-55
2023/09/21 05:54:42;;;;;;;5.32;3.13;;;16.80;99.90;;;;;;5029444;28;20053;-54
2023/09/21 05:57:08;;;;;;;5.75;2.70;;;16.80;99.90;;;;;;5027198;28;20025;-54
2023/09/21 05:59:33;;;;;;;5.50;2.88;;;16.90;99.90;;;;;;5022892;28;20419;-55
2023/09/21 06:01:59;;;;;;;5.85;2.78;;;17.00;99.90;;;;;;5026705;28;20042;-54
2023/09/21 06:04:25;;;;;;;6.47;3.22;;;17.00;99.90;;;;;;5028270;28;20021;-54
2023/09/21 06:06:54;;;;;;;4.03;2.70;;;17.00;99.90;;;;;;5027525;28;20383;-54
2023/09/21 06:09:20;;;;;;;11.20;2.95;;;17.00;99.90;;;;;;5028610;28;20014;-54
2023/09/21 06:11:46;;;;;;;5.45;3.42;;;17.10;99.90;;;;;;5027195;28;20022;-54
2023/09/21 06:14:12;;;;;;;3.45;2.45;;;17.10;99.90;;;;;;5023116;28;20021;-55
2023/09/21 06:16:37;;;;;;;5.13;2.97;;;17.10;99.90;;;;;;5029470;28;20079;-54
2023/09/21 06:19:03;;;;;;;4.68;2.70;;;17.20;99.90;;;;;;5008907;28;20064;-54
2023/09/21 06:21:30;;;;;;;8.52;3.00;;;17.20;99.90;;;;;;5023644;28;20026;-54
2023/09/21 06:23:56;;;;;;;3.88;2.30;;;17.30;99.90;;;;;;5015615;28;20073;-54
2023/09/21 06:26:22;;;;;;;4.60;3.05;;;17.30;99.90;;;;;;5009679;28;20046;-54
2023/09/21 06:28:48;;;;;;;5.05;2.63;;;17.30;99.90;;;;;;5008091;28;20029;-54
2023/09/21 06:31:14;;;;;;;7.38;3.35;;;17.40;99.90;;;;;;5024001;28;20387;-53
2023/09/21 06:33:40;;;;;;;6.63;2.72;;;17.40;99.90;;;;;;5012449;28;20033;-55
2023/09/21 06:36:17;;;;;;;3.70;2.80;;;17.50;99.90;;;;;;5009633;28;20041;-54
2023/09/21 06:38:42;;;;;;;6.22;2.63;;;17.60;99.90;;;;;;5026502;28;20145;-54
2023/09/21 06:41:09;;;;;;;4.72;2.50;;;17.60;99.90;;;;;;5011889;28;20479;-54
2023/09/21 06:43:36;;;;;;;5.85;3.08;;;17.60;99.90;;;;;;5011271;28;20022;-54
2023/09/21 06:46:02;;;;;;;3.63;2.20;;;17.70;99.90;;;;;;5014125;28;20021;-54
2023/09/21 06:48:27;;;;;;;4.55;2.58;;;17.70;99.90;;;;;;5017368;28;20030;-54
2023/09/21 06:50:53;;;;;;;6.20;3.13;;;17.80;99.90;;;;;;5029298;28;20028;-54
2023/09/21 06:53:18;;;;;;;6.15;2.80;;;17.80;99.90;;;;;;5016739;28;20458;-53
2023/09/21 06:55:44;;;;;;;5.10;2.08;;;17.90;99.90;;;;;;5009984;28;20553;-54
2023/09/21 06:58:09;;;;;;;3.38;2.67;;;18.00;99.90;;;;;;5017349;28;20113;-54
2023/09/21 07:00:37;;;;;;;4.32;2.70;;;18.00;99.90;;;;;;5016328;28;20036;-53
2023/09/21 07:03:03;;;;;;;4.30;2.65;;;18.10;99.90;;;;;;5027558;28;20191;-53
2023/09/21 07:05:28;;;;;;;6.53;3.20;;;18.20;99.90;;;;;;5038008;28;20021;-53
2023/09/21 07:07:54;;;;;;;5.88;2.72;;;18.30;99.90;;;;;;5026040;28;20029;-53
2023/09/21 07:10:19;;;;;;;4.80;2.90;;;18.40;99.90;;;;;;5012226;28;20101;-53
2023/09/21 07:12:45;;;;;;;7.70;3.20;;;18.40;99.90;;;;;;5012528;28;20207;-53
2023/09/21 07:15:11;;;;;;;3.25;2.28;;;18.60;99.90;;;;;;5021402;28;20634;-54
2023/09/21 07:17:36;;;;;;;4.28;3.05;;;18.60;99.90;;;;;;5022807;28;20041;-54
2023/09/21 07:20:06;;;;;;;6.55;3.00;;;18.70;99.90;;;;;;5030987;28;20033;-54
2023/09/21 07:22:32;;;;;;;3.78;2.55;;;18.80;99.90;;;;;;5014053;28;20018;-54
2023/09/21 07:24:59;;;;;;;3.75;2.53;;;18.90;99.90;;;;;;5014041;28;20030;-54
2023/09/21 07:27:25;;;;;;;4.78;2.80;;;18.90;99.90;;;;;;5020980;28;20030;-54
2023/09/21 07:29:53;;;;;;;5.35;2.58;;;19.00;99.90;;;;;;5016993;28;20048;-54
2023/09/21 07:32:20;;;;;;;4.25;2.67;;;19.10;99.90;;;;;;5035638;28;20030;-54
2023/09/21 07:34:48;;;;;;;4.53;2.50;;;19.20;99.90;;;;;;5016282;28;20479;-54
2023/09/21 07:37:16;;;;;;;3.47;2.65;;;19.20;99.90;;;;;;5020365;28;20030;-54
2023/09/21 07:39:42;;;;;;;5.05;2.58;;;19.30;99.90;;;;;;5013352;28;20025;-54
2023/09/21 07:42:07;;;;;;;3.10;2.40;;;19.30;99.90;;;;;;5028313;28;20076;-54
2023/09/21 07:44:33;;;;;;;4.57;2.78;;;19.40;99.90;;;;;;5017666;28;20487;-54
2023/09/21 07:46:59;;;;;;;3.55;2.30;;;19.50;99.90;;;;;;5023850;28;20075;-55
2023/09/21 07:49:25;;;;;;;4.97;2.53;;;19.60;99.90;;;;;;5017598;28;20022;-55
2023/09/21 07:51:51;;;;;;;4.15;2.40;;;19.70;99.90;;;;;;5012821;28;20032;-55
2023/09/21 07:54:17;;;;;;;3.47;2.38;;;19.80;99.90;;;;;;5012716;28;20224;-55
2023/09/21 07:56:42;;;;;;;3.85;2.60;;;19.90;99.90;;;;;;5012796;28;20030;-54
2023/09/21 07:59:10;;;;;;;3.47;2.35;;;20.00;99.90;;;;;;5013050;28;20479;-55
2023/09/21 08:01:36;;;;;;;3.40;2.55;;;20.10;99.90;;;;;;5012471;28;20426;-54
2023/09/21 08:04:02;;;;;;;3.15;2.50;;;20.30;99.90;;;;;;5036260;28;20034;-55
2023/09/21 08:06:28;;;;;;;3.58;2.10;;;20.40;99.90;;;;;;5017117;28;20030;-54
2023/09/21 08:08:54;;;;;;;3.53;2.03;;;20.60;99.90;;;;;;5018780;28;20018;-54
2023/09/21 08:11:21;;;;;;;6.15;2.15;;;20.80;99.90;;;;;;5016362;28;20459;-54
2023/09/21 08:13:47;;;;;;;4.38;2.15;;;21.20;99.90;;;;;;5018252;28;20022;-54
2023/09/21 08:16:13;;;;;;;4.47;2.13;;;22.10;98.90;;;;;;5015835;28;20053;-51
2023/09/21 08:18:39;;;;;;;3.03;2.10;;;23.70;97.40;;;;;;5016933;28;20484;-51
2023/09/21 08:21:05;;;;;;;4.95;2.50;;;25.50;93.90;;;;;;5012546;28;20026;-51
2023/09/21 08:23:32;;;;;;;2.05;1.88;;;26.90;91.20;;;;;;5013182;28;20512;-52
2023/09/21 08:25:58;;;;;;;6.75;1.98;;;28.00;85.00;;;;;;5017235;28;20451;-52
2023/09/21 08:28:24;;;;;;;4.38;1.90;;;29.00;82.90;;;;;;5011846;28;20029;-52
2023/09/21 08:30:50;;;;;;;3.00;2.00;;;29.30;79.50;;;;;;5020194;28;20022;-53
2023/09/21 08:33:17;;;;;;;4.20;2.60;;;29.80;77.40;;;;;;5018224;28;20388;-53
2023/09/21 08:35:43;;;;;;;2.25;1.92;;;30.20;76.30;;;;;;5021673;28;20025;-52
2023/09/21 08:38:09;;;;;;;2.58;1.90;;;30.60;73.10;;;;;;5015276;28;20056;-52
2023/09/21 08:40:37;;;;;;;3.22;1.70;;;30.50;74.50;;;;;;5020278;28;20475;-53
2023/09/21 08:43:04;;;;;;;3.20;2.22;;;32.10;72.60;;;;;;5015692;28;20121;-53
2023/09/21 08:45:30;;;;;;;2.55;2.17;;;33.00;68.80;;;;;;5036775;28;20026;-53
2023/09/21 08:47:56;;;;;;;2.53;1.83;;;33.10;68.40;;;;;;5012597;28;20030;-53
2023/09/21 08:50:24;;;;;;;4.07;1.95;;;34.10;65.10;;;;;;5014318;28;20020;-53
2023/09/21 08:52:53;;;;;;;6.13;2.03;;;34.40;63.70;;;;;;5014812;28;20568;-54
2023/09/21 08:55:21;;;;;;;3.73;1.90;;;35.10;64.30;;;;;;5027786;28;20116;-53
2023/09/21 08:57:47;;;;;;;2.90;2.10;;;34.50;62.50;;;;;;5041752;28;20284;-54
2023/09/21 09:00:13;;;;;;;3.05;2.00;;;34.30;62.00;;;;;;5015240;28;20022;-53
2023/09/21 09:02:38;;;;;;;4.10;1.80;;;33.40;62.50;;;;;;5020809;28;20033;-53
2023/09/21 09:05:08;;;;;;;8.88;2.42;;;31.60;64.60;;;;;;5017943;28;20087;-53
2023/09/21 09:07:39;;;;;;;3.58;2.30;;;30.50;66.70;;;;;;5016750;28;20056;-52
2023/09/21 09:10:06;;;;;;;3.80;2.30;;;30.10;68.80;;;;;;5012591;28;20030;-52
2023/09/21 09:12:32;;;;;;;4.78;2.35;;;29.00;69.40;;;;;;5016591;28;20104;-52
2023/09/21 09:15:02;;;;;;;4.30;2.05;;;28.40;71.60;;;;;;5027487;28;20033;-53
2023/09/21 09:17:31;;;;;;;;;;;28.00;71.40;;;;;;5016141;28;20105;-52
2023/09/21 09:19:57;;;;;;;7.95;2.30;;;27.60;72.30;;;;;;5020988;28;19917;-52
2023/09/21 09:22:23;;;;;;;3.17;2.10;;;27.20;73.50;;;;;;5012805;28;20080;-52
2023/09/21 09:24:50;;;;;;;8.00;2.85;;;27.20;74.10;;;;;;5011577;28;20479;-52
2023/09/21 09:27:16;;;;;;;3.75;2.05;;;26.80;74.60;;;;;;5014253;28;20017;-52
2023/09/21 09:29:52;;;;;;;2.42;2.08;;;26.40;76.50;;;;;;5010441;28;20018;-51
2023/09/21 09:32:21;;;;;;;3.40;1.92;;;25.90;78.10;;;;;;5014720;28;20034;-52
2023/09/21 09:34:47;;;;;;;4.07;2.13;;;25.80;79.30;;;;;;5021023;28;20033;-52
2023/09/21 09:37:15;;;;;;;4.10;2.55;;;25.80;79.70;;;;;;5020502;28;20036;-52
2023/09/21 09:39:42;;;;;;;4.53;2.50;;;25.70;80.00;;;;;;5021756;28;20047;-52
2023/09/21 09:42:09;;;;;;;5.75;2.40;;;25.30;81.70;;;;;;5018492;28;20013;-51
2023/09/21 09:44:44;;;;;;;3.20;2.17;;;25.20;81.90;;;;;;5012963;28;20491;-51
2023/09/21 09:47:14;;;;;;;3.25;2.38;;;25.10;83.00;;;;;;5020016;28;20029;-50
2023/09/21 09:49:45;;;;;;;4.80;2.00;;;24.80;83.70;;;;;;5024291;28;20025;-51
2023/09/21 09:52:13;;;;;;;3.13;2.25;;;24.70;84.10;;;;;;5026541;28;20441;-51
2023/09/21 09:54:40;;;;;;;3.75;1.85;;;24.70;84.40;;;;;;5012064;28;20029;-52
2023/09/21 09:57:11;;;;;;;3.22;2.42;;;25.10;85.70;;;;;;5012951;28;20132;-51
2023/09/21 09:59:37;;;;;;;5.18;2.28;;;25.60;84.30;;;;;;5017405;28;20045;-50
2023/09/21 10:02:07;;;;;;;5.78;2.95;;;25.60;82.20;;;;;;5012238;28;20034;-52
2023/09/21 10:04:35;;;;;;;3.20;2.10;;;25.90;82.40;;;;;;5015247;28;20513;-51
2023/09/21 10:07:04;;;;;;;4.47;2.25;;;26.40;81.60;;;;;;5036512;28;20403;-51
2023/09/21 10:09:29;;;;;;;6.78;2.60;;;27.40;81.60;;;;;;5018050;28;20025;-52
2023/09/21 10:11:58;;;;;;;3.58;2.10;;;27.30;78.90;;;;;;5014826;28;20029;-51
2023/09/21 10:14:24;;;;;;;6.53;2.22;;;27.00;78.40;;;;;;5011383;28;20633;-51
2023/09/21 10:16:56;;;;;;;4.35;2.65;;;26.70;79.40;;;;;;5011154;28;20330;-51
2023/09/21 10:19:28;;;;;;;2.95;2.10;;;26.30;81.60;;;;;;5014517;28;20379;-52
2023/09/21 10:21:56;;;;;;;7.18;2.70;;;26.30;82.00;;;;;;5016872;28;20033;-51
2023/09/21 10:24:24;;;;;;;3.58;2.13;;;26.10;81.90;;;;;;5032041;28;20683;-51
2023/09/21 10:26:51;;;;;;;4.57;2.20;;;25.80;83.20;;;;;;5016457;28;20021;-50
2023/09/21 10:29:26;;;;;;;3.70;1.88;;;25.70;83.70;;;;;;5012002;28;20022;-51
2023/09/21 10:31:54;;;;;;;5.03;2.95;;;25.70;83.90;;;;;;5015243;28;20101;-51
2023/09/21 10:34:21;;;;;;;7.57;2.42;;;25.30;84.50;;;;;;5011974;28;20018;-51
2023/09/21 10:36:52;;;;;;;3.90;2.45;;;25.30;85.90;;;;;;5024878;28;20040;-51
2023/09/21 10:39:25;;;;;;;3.83;2.17;;;25.30;85.80;;;;;;5012762;28;20506;-51
2023/09/21 10:41:55;;;;;;;3.75;2.17;;;25.10;86.70;;;;;;5019022;28;20103;-51
2023/09/21 10:45:03;;;;;;;3.65;2.35;;;25.10;86.90;;;;;;5018777;28;20018;-51
2023/09/21 10:47:38;;;;;;;5.18;3.03;;;25.40;88.10;;;;;;4961826;28;20035;-51
2023/09/21 10:50:11;;;;;;;8.48;2.45;;;25.40;87.40;;;;;;4966844;28;20051;-52
2023/09/21 10:52:39;;;;;;;3.50;2.35;;;25.40;85.60;;;;;;5002225;28;20045;-51
2023/09/21 10:55:06;;;;;;;5.22;2.45;;;25.40;86.10;;;;;;5027638;28;20025;-51
2023/09/21 10:57:32;;;;;;;5.10;2.65;;;25.50;84.90;;;;;;5022391;28;20029;-51
2023/09/21 11:00:00;;;;;;;8.05;2.30;;;25.40;85.00;;;;;;5020876;28;20098;-52
2023/09/21 11:02:30;;;;;;;5.07;2.63;;;25.50;84.70;;;;;;5025962;28;20068;-51
2023/09/21 11:04:57;;;;;;;7.28;3.25;;;26.00;84.20;;;;;;5019655;28;20415;-52
2023/09/21 11:07:24;;;;;;;3.80;2.25;;;26.50;83.30;;;;;;5017025;28;20531;-51
2023/09/21 11:09:49;;;;;;;8.65;2.28;;;26.50;81.90;;;;;;5023048;28;20018;-52
2023/09/21 11:12:17;;;;;;;4.18;2.67;;;26.30;82.80;;;;;;5020862;28;20044;-52
2023/09/21 11:14:47;;;;;;;7.00;2.72;;;26.30;82.70;;;;;;5017039;28;20018;-50
2023/09/21 11:17:16;;;;;;;11.00;2.38;;;26.10;83.60;;;;;;5022300;28;20030;-52
2023/09/21 11:19:44;;;;;;;7.07;2.33;;;26.00;82.80;;;;;;5029215;28;20018;-52
2023/09/21 11:22:10;;;;;;;4.65;2.72;;;25.50;84.40;;;;;;5018171;28;20049;-52
2023/09/21 11:24:36;;;;;;;5.97;2.42;;;25.30;85.20;;;;;;5013261;28;20113;-51
2023/09/21 11:27:03;;;;;;;5.55;2.25;;;25.40;85.10;;;;;;5020973;28;20079;-52
2023/09/21 11:29:29;;;;;;;7.80;2.55;;;25.30;85.80;;;;;;5023659;28;20045;-52
2023/09/21 11:31:55;;;;;;;7.85;2.50;;;25.10;86.00;;;;;;5018673;28;20022;-52
2023/09/21 11:34:20;;;;;;;6.00;2.55;;;25.10;86.40;;;;;;5016111;28;20036;-52
2023/09/21 11:36:47;;;;;;;6.18;2.80;;;25.30;86.00;;;;;;5015242;28;20021;-53
2023/09/21 11:39:13;;;;;;;7.45;2.33;;;25.60;85.90;;;;;;5021417;28;20048;-52
2023/09/21 11:41:39;;;;;;;6.40;2.70;;;25.70;85.40;;;;;;5013540;28;20383;-51
2023/09/21 11:44:06;;;;;;;4.38;2.90;;;25.40;85.70;;;;;;5017034;28;20060;-52
2023/09/21 11:46:32;;;;;;;4.97;2.55;;;25.30;86.50;;;;;;5012867;28;20321;-51
2023/09/21 11:48:58;;;;;;;7.32;2.50;;;25.00;86.80;;;;;;5033188;28;20026;-50
2023/09/21 11:51:28;;;;;;;3.85;2.67;;;24.80;87.90;;;;;;5028115;28;20032;-51
2023/09/21 11:53:58;;;;;;;3.33;2.20;;;24.70;88.30;;;;;;5018179;28;20100;-52
2023/09/21 11:56:24;;;;;;;3.10;2.47;;;24.70;88.90;;;;;;5015693;28;20033;-49
2023/09/21 11:58:49;;;;;;;3.13;2.00;;;24.70;90.20;;;;;;5020717;28;20041;-51
2023/09/21 12:01:19;;;;;;;9.30;2.70;;;24.60;90.00;;;;;;5014776;28;20068;-52
2023/09/21 12:03:46;;;;;;;6.33;2.33;;;24.60;89.70;;;;;;5014335;28;20076;-51
2023/09/21 12:06:12;;;;;;;5.55;2.05;;;24.50;89.50;;;;;;5024508;28;20762;-52
2023/09/21 12:08:38;;;;;;;5.75;2.20;;;24.50;90.20;;;;;;5015369;28;20033;-51
2023/09/21 12:11:04;;;;;;;6.78;2.70;;;24.40;90.10;;;;;;5016843;28;20024;-50
2023/09/21 12:13:30;;;;;;;3.92;2.72;;;24.40;90.10;;;;;;5015575;28;20033;-51
2023/09/21 12:15:56;;;;;;;3.22;2.20;;;24.20;90.30;;;;;;5015281;28;20041;-51
2023/09/21 12:18:22;;;;;;;3.58;2.40;;;24.10;90.60;;;;;;5015771;28;20034;-51
2023/09/21 12:20:56;;;;;;;2.97;2.22;;;24.00;90.80;;;;;;5036340;28;20022;-49
2023/09/21 12:23:25;;;;;;;6.88;2.70;;;23.90;91.30;;;;;;5014099;28;20124;-50
2023/09/21 12:25:50;;;;;;;2.80;2.15;;;23.80;92.00;;;;;;5015951;28;20032;-51
2023/09/21 12:28:17;;;;;;;8.52;2.63;;;23.60;92.50;;;;;;5020655;28;20030;-49
2023/09/21 12:30:44;;;;;;;6.18;2.75;;;23.50;93.50;;;;;;5015096;28;20464;-49
2023/09/21 12:33:11;;;;;;;4.28;2.50;;;23.40;94.10;;;;;;5017045;28;20021;-50
2023/09/21 12:35:37;;;;;;;4.40;2.33;;;23.30;94.90;;;;;;5025288;28;20084;-50
2023/09/21 12:38:02;;;;;;;5.75;2.40;;;23.10;98.00;;;;;;5017439;28;20042;-51
2023/09/21 12:40:28;;;;;;;8.07;2.85;;;23.00;96.80;;;;;;5020858;28;20029;-50
2023/09/21 12:42:54;;;;;;;4.40;2.95;;;22.90;98.70;;;;;;5021836;28;20033;-49
2023/09/21 12:45:21;;;;;;;4.38;2.70;;;22.80;99.20;;;;;;5012330;28;20029;-49
2023/09/21 12:47:47;;;;;;;4.55;2.50;;;22.70;99.40;;;;;;5015071;28;20029;-51
2023/09/21 12:50:14;;;;;;;7.88;2.97;;;22.60;99.90;;;;;;5020647;28;20096;-50
2023/09/21 12:52:41;;;;;;;4.78;3.38;;;22.50;99.90;;;;;;5013904;28;20022;-51